createdAt,value
2023-02-06T00:00:49.933Z,6.78
2023-02-06T00:03:16.714Z,7.03
2023-02-06T00:05:43.385Z,7.13
2023-02-06T00:08:09.990Z,7.00
2023-02-06T00:10:36.620Z,6.65
2023-02-06T00:13:03.225Z,7.45
2023-02-06T00:15:29.920Z,7.22
2023-02-06T00:17:56.489Z,5.63
2023-02-06T00:20:23.067Z,5.80
2023-02-06T00:22:49.621Z,7.55
2023-02-06T00:25:16.215Z,7.07
2023-02-06T00:27:43.000Z,5.88
2023-02-06T00:30:10.070Z,6.10
2023-02-06T00:32:36.869Z,5.63
2023-02-06T00:35:03.794Z,5.78
2023-02-06T00:37:30.403Z,4.82
2023-02-06T00:39:57.060Z,5.50
2023-02-06T00:42:23.728Z,5.40
2023-02-06T00:44:50.509Z,5.95
2023-02-06T00:47:17.040Z,5.30
2023-02-06T00:49:43.591Z,5.63
2023-02-06T00:52:10.309Z,6.15
2023-02-06T00:54:36.917Z,6.20
2023-02-06T00:57:03.679Z,5.30
2023-02-06T00:59:30.296Z,5.00
2023-02-06T01:01:58.229Z,5.43
2023-02-06T01:04:24.997Z,6.28
2023-02-06T01:06:51.529Z,5.25
2023-02-06T01:09:18.155Z,5.50
2023-02-06T01:11:44.803Z,6.05
2023-02-06T01:14:11.369Z,6.00
2023-02-06T01:16:37.930Z,5.70
2023-02-06T01:19:04.529Z,6.25
2023-02-06T01:21:33.218Z,6.65
2023-02-06T01:24:00.009Z,6.75
2023-02-06T01:26:27.283Z,5.20
2023-02-06T01:28:55.242Z,5.00
2023-02-06T01:31:29.420Z,7.47
2023-02-06T01:33:57.813Z,5.97
2023-02-06T01:36:25.354Z,8.25
2023-02-06T01:38:52.723Z,6.50
2023-02-06T01:41:21.180Z,8.00
2023-02-06T01:44:13.172Z,7.50
2023-02-06T01:46:41.429Z,7.00
2023-02-06T01:49:13.877Z,6.72
2023-02-06T01:51:41.128Z,6.55
2023-02-06T01:54:09.191Z,6.07
2023-02-06T01:56:47.574Z,5.72
2023-02-06T01:59:14.562Z,5.32
2023-02-06T02:01:42.064Z,5.00
2023-02-06T02:04:14.935Z,5.60
2023-02-06T02:06:41.740Z,5.30
2023-02-06T02:09:08.416Z,7.28
2023-02-06T02:11:37.504Z,5.75
2023-02-06T02:14:08.707Z,6.40
2023-02-06T02:17:19.429Z,5.55
2023-02-06T02:20:07.990Z,6.22
2023-02-06T02:22:54.674Z,5.80
2023-02-06T02:25:24.163Z,5.30
2023-02-06T02:27:50.709Z,7.00
2023-02-06T02:30:39.149Z,6.40
2023-02-06T02:33:19.453Z,6.07
2023-02-06T02:35:58.124Z,6.03
2023-02-06T02:38:53.360Z,5.75
2023-02-06T02:41:44.871Z,6.25
2023-02-06T02:44:21.846Z,5.82
2023-02-06T02:46:54.955Z,6.95
2023-02-06T02:49:26.990Z,6.63
2023-02-06T02:51:54.491Z,6.47
2023-02-06T02:54:21.286Z,6.78
2023-02-06T02:56:47.903Z,6.63
2023-02-06T02:59:28.810Z,6.80
2023-02-06T03:02:04.119Z,7.82
2023-02-06T03:04:48.163Z,6.35
2023-02-06T03:07:21.766Z,5.47
2023-02-06T03:10:11.329Z,6.82
2023-02-06T03:12:54.190Z,6.55
2023-02-06T03:15:35.970Z,6.07
2023-02-06T03:18:19.376Z,5.55
2023-02-06T03:20:47.672Z,5.20
2023-02-06T03:23:21.775Z,6.40
2023-02-06T03:25:52.383Z,5.38
2023-02-06T03:28:25.472Z,5.90
2023-02-06T03:30:56.780Z,6.18
2023-02-06T03:33:27.992Z,6.32
2023-02-06T03:35:56.871Z,6.78
2023-02-06T03:38:25.042Z,6.40
2023-02-06T03:40:54.596Z,6.45
2023-02-06T03:45:56.072Z,6.00
2023-02-06T03:48:45.785Z,6.47
2023-02-06T03:51:21.154Z,5.18
2023-02-06T03:53:50.200Z,6.55
2023-02-06T03:56:28.266Z,7.50
2023-02-06T03:58:54.977Z,6.43
2023-02-06T04:01:23.260Z,6.85
2023-02-06T04:03:50.121Z,6.45
2023-02-06T04:06:16.719Z,6.10
2023-02-06T04:08:43.487Z,6.90
2023-02-06T04:11:10.026Z,6.60
2023-02-06T04:13:36.745Z,6.55
2023-02-06T04:16:03.525Z,6.40
2023-02-06T04:18:30.144Z,6.13
2023-02-06T04:21:03.845Z,6.38
2023-02-06T04:23:30.505Z,7.45
2023-02-06T04:25:57.113Z,7.88
2023-02-06T04:28:23.705Z,8.15
2023-02-06T04:30:50.483Z,8.18
2023-02-06T04:33:17.208Z,7.43
2023-02-06T04:35:43.838Z,6.50
2023-02-06T04:38:10.424Z,6.65
2023-02-06T04:40:36.981Z,6.93
2023-02-06T04:43:03.597Z,6.25
2023-02-06T04:45:30.221Z,6.35
2023-02-06T04:47:59.184Z,6.90
2023-02-06T04:50:29.303Z,6.93
2023-02-06T04:52:55.931Z,6.97
2023-02-06T04:55:22.803Z,8.18
2023-02-06T04:57:49.383Z,8.48
2023-02-06T05:00:16.963Z,7.70
2023-02-06T05:02:43.591Z,8.02
2023-02-06T05:05:12.572Z,8.77
2023-02-06T05:07:39.249Z,8.60
2023-02-06T05:10:06.518Z,7.40
2023-02-06T05:12:33.090Z,7.32
2023-02-06T05:14:59.690Z,8.02
2023-02-06T05:17:26.270Z,7.00
2023-02-06T05:19:52.830Z,7.40
2023-02-06T05:22:19.402Z,7.30
2023-02-06T05:24:45.962Z,7.70
2023-02-06T05:27:12.596Z,8.32
2023-02-06T05:29:39.647Z,7.43
2023-02-06T05:32:06.338Z,7.90
2023-02-06T05:34:33.076Z,8.82
2023-02-06T05:36:59.589Z,9.50
2023-02-06T05:39:26.314Z,9.35
2023-02-06T05:41:53.126Z,9.73
2023-02-06T05:44:19.741Z,8.27
2023-02-06T05:46:48.361Z,8.00
2023-02-06T05:49:15.303Z,9.13
2023-02-06T05:51:41.835Z,7.75
2023-02-06T05:54:08.402Z,10.52
2023-02-06T05:56:34.981Z,7.88
2023-02-06T05:59:01.545Z,8.00
2023-02-06T06:01:29.135Z,6.88
2023-02-06T06:03:56.183Z,8.23
2023-02-06T06:06:22.799Z,8.55
2023-02-06T06:08:49.374Z,8.10
2023-02-06T06:11:15.975Z,8.77
2023-02-06T06:13:42.537Z,8.05
2023-02-06T06:16:09.110Z,8.38
2023-02-06T06:18:35.762Z,8.40
2023-02-06T06:21:02.469Z,7.68
2023-02-06T06:23:29.114Z,9.10
2023-02-06T06:25:55.704Z,8.25
2023-02-06T06:28:22.377Z,9.32
2023-02-06T06:30:48.958Z,9.20
2023-02-06T06:33:16.647Z,8.65
2023-02-06T06:35:43.575Z,10.68
2023-02-06T06:38:11.266Z,11.00
2023-02-06T06:40:39.785Z,9.23
2023-02-06T06:43:06.460Z,9.57
2023-02-06T06:45:33.063Z,10.30
2023-02-06T06:47:59.776Z,11.98
2023-02-06T06:50:26.396Z,10.32
2023-02-06T06:52:53.000Z,8.57
2023-02-06T06:55:19.666Z,9.50
2023-02-06T06:57:47.023Z,9.80
2023-02-06T07:00:15.825Z,9.95
2023-02-06T07:02:42.904Z,9.77
2023-02-06T07:05:10.288Z,10.82
2023-02-06T07:07:39.056Z,9.60
2023-02-06T07:10:07.430Z,9.93
2023-02-06T07:12:34.135Z,10.60
2023-02-06T07:15:00.803Z,13.75
2023-02-06T07:17:27.356Z,9.82
2023-02-06T07:19:54.021Z,11.68
2023-02-06T07:22:21.247Z,11.10
2023-02-06T07:24:48.319Z,11.18
2023-02-06T07:27:14.951Z,10.73
2023-02-06T07:29:41.536Z,10.63
2023-02-06T07:32:08.212Z,12.00
2023-02-06T07:34:36.044Z,12.50
2023-02-06T07:37:03.434Z,11.95
2023-02-06T07:39:30.090Z,12.23
2023-02-06T07:41:56.599Z,12.35
2023-02-06T07:44:30.024Z,11.57
2023-02-06T07:46:57.332Z,13.13
2023-02-06T07:49:24.371Z,13.13
2023-02-06T07:51:50.975Z,11.75
2023-02-06T07:54:18.966Z,12.52
2023-02-06T07:59:13.702Z,11.18
2023-02-06T08:01:40.299Z,11.70
2023-02-06T08:04:06.972Z,15.85
2023-02-06T08:06:33.624Z,12.20
2023-02-06T08:09:00.194Z,14.07
2023-02-06T08:11:30.042Z,12.50
2023-02-06T08:13:57.210Z,12.55
2023-02-06T08:16:25.144Z,12.15
2023-02-06T08:18:52.131Z,13.40
2023-02-06T08:21:22.119Z,12.60
2023-02-06T08:23:54.903Z,11.48
2023-02-06T08:26:22.082Z,12.15
2023-02-06T08:28:50.845Z,12.70
2023-02-06T08:31:21.815Z,9.10
2023-02-06T08:33:49.214Z,13.07
2023-02-06T08:36:18.393Z,14.70
2023-02-06T08:38:45.260Z,12.30
2023-02-06T08:41:22.055Z,13.32
2023-02-06T08:43:50.609Z,14.40
2023-02-06T08:46:18.834Z,13.75
2023-02-06T08:48:45.916Z,14.82
2023-02-06T08:51:14.285Z,15.65
2023-02-06T08:53:41.107Z,14.73
2023-02-06T08:56:10.771Z,16.77
2023-02-06T09:01:10.083Z,14.48
2023-02-06T09:03:36.994Z,16.15
2023-02-06T09:06:09.908Z,16.42
2023-02-06T09:08:38.142Z,19.02
2023-02-06T09:11:08.432Z,17.63
2023-02-06T09:13:35.800Z,16.42
2023-02-06T09:16:03.363Z,15.75
2023-02-06T09:18:30.081Z,16.27
2023-02-06T09:21:12.072Z,18.35
2023-02-06T09:23:44.719Z,18.48
2023-02-06T09:26:13.023Z,18.02
2023-02-06T09:28:40.019Z,25.55
2023-02-06T09:31:08.201Z,20.85
2023-02-06T09:33:36.490Z,19.55
2023-02-06T09:36:13.951Z,17.55
2023-02-06T09:38:42.945Z,18.67
2023-02-06T09:41:20.076Z,13.68
2023-02-06T09:43:53.612Z,18.20
2023-02-06T09:46:27.284Z,19.98
2023-02-06T09:48:56.486Z,18.20
2023-02-06T09:51:25.817Z,17.95
2023-02-06T09:54:09.004Z,17.80
2023-02-06T09:57:09.279Z,18.40
2023-02-06T09:59:40.704Z,17.95
2023-02-06T10:02:26.066Z,16.95
2023-02-06T10:05:14.039Z,18.50
2023-02-06T10:07:52.781Z,18.70
2023-02-06T10:10:43.100Z,19.80
2023-02-06T10:13:17.775Z,18.75
2023-02-06T10:15:47.987Z,21.48
2023-02-06T10:18:38.241Z,19.35
2023-02-06T10:21:10.928Z,18.25
2023-02-06T10:24:04.471Z,18.90
2023-02-06T10:26:34.454Z,17.73
2023-02-06T10:29:01.121Z,18.70
2023-02-06T10:31:41.223Z,20.70
2023-02-06T10:34:07.731Z,23.65
2023-02-06T10:36:37.070Z,19.92
2023-02-06T10:39:18.146Z,18.92
2023-02-06T10:42:22.916Z,16.98
2023-02-06T10:45:19.302Z,20.92
2023-02-06T10:47:54.994Z,16.30
2023-02-06T10:50:36.272Z,17.23
2023-02-06T10:53:27.740Z,17.02
2023-02-06T10:56:02.787Z,17.27
2023-02-06T10:58:42.610Z,19.63
2023-02-06T11:01:25.086Z,16.73
2023-02-06T11:04:21.783Z,18.50
2023-02-06T11:06:48.415Z,17.38
2023-02-06T11:09:16.876Z,20.00
2023-02-06T11:11:51.309Z,19.05
2023-02-06T11:14:25.331Z,19.45
2023-02-06T11:16:53.295Z,20.00
2023-02-06T11:19:30.271Z,20.48
2023-02-06T11:22:08.565Z,20.75
2023-02-06T11:24:39.080Z,21.02
2023-02-06T11:27:17.029Z,21.25
2023-02-06T11:29:47.247Z,20.67
2023-02-06T11:32:36.420Z,20.25
2023-02-06T11:35:07.879Z,19.42
2023-02-06T11:37:38.700Z,21.10
2023-02-06T11:40:17.545Z,19.10
2023-02-06T11:43:11.109Z,20.40
2023-02-06T11:45:37.990Z,19.48
2023-02-06T11:48:07.299Z,21.65
2023-02-06T11:50:36.404Z,19.35
2023-02-06T11:53:09.385Z,20.75
2023-02-06T11:55:37.920Z,21.00
2023-02-06T11:58:13.988Z,21.27
2023-02-06T12:00:52.829Z,22.77
2023-02-06T12:03:51.774Z,23.27
2023-02-06T12:06:30.715Z,22.15
2023-02-06T12:09:02.941Z,22.25
2023-02-06T12:11:43.036Z,20.75
2023-02-06T12:14:29.413Z,27.77
2023-02-06T12:16:56.620Z,20.42
2023-02-06T12:19:33.630Z,17.40
2023-02-06T12:22:26.888Z,18.20
2023-02-06T12:24:56.366Z,19.73
2023-02-06T12:27:34.291Z,19.00
2023-02-06T12:30:19.726Z,16.05
2023-02-06T12:32:50.712Z,14.40
2023-02-06T12:35:44.812Z,15.15
2023-02-06T12:38:21.501Z,14.35
2023-02-06T12:40:51.161Z,13.77
2023-02-06T12:43:18.933Z,14.77
2023-02-06T12:46:01.586Z,14.15
2023-02-06T12:48:37.243Z,15.15
2023-02-06T12:51:27.368Z,15.25
2023-02-06T12:54:06.264Z,15.23
2023-02-06T12:56:41.906Z,16.27
2023-02-06T12:59:56.988Z,14.30
2023-02-06T13:02:57.589Z,14.70
2023-02-06T13:05:28.800Z,14.98
2023-02-06T13:08:03.436Z,13.82
2023-02-06T13:10:30.077Z,15.10
2023-02-06T13:12:59.002Z,14.77
2023-02-06T13:15:31.145Z,14.50
2023-02-06T13:17:58.017Z,15.38
2023-02-06T13:20:26.390Z,14.55
2023-02-06T13:23:14.624Z,14.23
2023-02-06T13:25:41.199Z,14.05
2023-02-06T13:28:23.165Z,15.02
2023-02-06T13:31:00.875Z,12.73
2023-02-06T13:33:39.445Z,14.32
2023-02-06T13:36:17.702Z,13.32
2023-02-06T13:38:44.319Z,12.98
2023-02-06T13:41:16.925Z,13.05
2023-02-06T13:44:18.989Z,13.95
2023-02-06T13:47:33.344Z,12.88
2023-02-06T13:50:28.703Z,13.38
2023-02-06T13:52:55.219Z,14.00
2023-02-06T13:55:42.538Z,18.85
2023-02-06T13:58:28.057Z,15.25
2023-02-06T14:00:57.181Z,17.83
2023-02-06T14:03:33.707Z,16.35
2023-02-06T14:06:20.792Z,15.93
2023-02-06T14:08:59.580Z,15.77
2023-02-06T14:11:29.090Z,16.48
2023-02-06T14:14:28.301Z,15.95
2023-02-06T14:17:51.645Z,15.13
2023-02-06T14:20:34.357Z,13.80
2023-02-06T14:23:16.210Z,13.32
2023-02-06T14:26:01.646Z,13.30
2023-02-06T14:28:43.157Z,13.40
2023-02-06T14:31:46.053Z,14.15
2023-02-06T14:34:26.191Z,10.80
2023-02-06T14:37:20.553Z,10.80
2023-02-06T14:39:53.526Z,11.73
2023-02-06T14:42:33.101Z,11.82
2023-02-06T14:47:42.104Z,10.00
2023-02-06T14:50:30.960Z,10.90
2023-02-06T14:53:03.367Z,11.55
2023-02-06T14:55:30.548Z,11.93
2023-02-06T14:57:57.393Z,8.63
2023-02-06T15:00:25.968Z,8.98
2023-02-06T15:03:23.249Z,8.90
2023-02-06T15:06:05.734Z,8.80
2023-02-06T15:08:33.559Z,8.52
2023-02-06T15:11:05.128Z,8.57
2023-02-06T15:13:37.724Z,9.73
2023-02-06T15:16:07.010Z,8.27
2023-02-06T15:18:34.957Z,8.32
2023-02-06T15:21:01.447Z,7.80
2023-02-06T15:24:04.590Z,7.55
2023-02-06T15:26:42.973Z,6.55
2023-02-06T15:29:22.887Z,5.90
2023-02-06T15:31:53.010Z,6.70
2023-02-06T15:34:23.084Z,5.63
2023-02-06T15:36:50.222Z,5.50
2023-02-06T15:39:18.193Z,5.63
2023-02-06T15:41:48.028Z,6.13
2023-02-06T15:44:26.537Z,6.03
2023-02-06T15:46:54.565Z,6.00
2023-02-06T15:49:43.270Z,6.32
2023-02-06T15:52:11.817Z,6.20
2023-02-06T15:54:42.423Z,5.97
2023-02-06T15:57:29.173Z,6.97
2023-02-06T15:59:59.010Z,8.35
2023-02-06T16:02:30.748Z,8.50
2023-02-06T16:04:57.588Z,13.68
2023-02-06T16:07:27.476Z,10.07
2023-02-06T16:10:09.297Z,10.60
2023-02-06T16:12:39.111Z,7.97
2023-02-06T16:17:52.090Z,14.38
2023-02-06T16:20:42.159Z,12.75
2023-02-06T16:23:44.060Z,12.98
2023-02-06T16:26:18.405Z,11.45
2023-02-06T16:28:50.996Z,11.13
2023-02-06T16:31:17.802Z,10.73
2023-02-06T16:33:47.350Z,9.30
2023-02-06T16:36:20.554Z,9.50
2023-02-06T16:38:57.552Z,10.25
2023-02-06T16:41:27.348Z,9.50
2023-02-06T16:43:55.939Z,9.27
2023-02-06T16:46:22.630Z,9.10
2023-02-06T16:48:49.326Z,8.93
2023-02-06T16:51:18.840Z,10.18
2023-02-06T16:53:48.224Z,9.80
2023-02-06T16:56:16.020Z,11.50
2023-02-06T16:58:43.020Z,11.20
2023-02-06T17:01:24.695Z,12.50
2023-02-06T17:03:52.800Z,13.55
2023-02-06T17:06:25.783Z,13.77
2023-02-06T17:08:55.624Z,14.30
2023-02-06T17:11:22.186Z,12.70
2023-02-06T17:13:49.045Z,13.45
2023-02-06T17:16:22.236Z,12.60
2023-02-06T17:18:49.346Z,12.38
2023-02-06T17:21:19.514Z,11.68
2023-02-06T17:23:47.078Z,13.50
2023-02-06T17:26:16.824Z,12.98
2023-02-06T17:28:43.970Z,10.60
2023-02-06T17:31:10.879Z,10.98
2023-02-06T17:33:37.888Z,12.32
2023-02-06T17:36:07.784Z,10.65
2023-02-06T17:38:34.607Z,11.90
2023-02-06T17:41:01.236Z,11.52
2023-02-06T17:43:29.547Z,12.80
2023-02-06T17:45:56.237Z,12.93
2023-02-06T17:48:22.879Z,12.02
2023-02-06T17:50:49.485Z,12.32
2023-02-06T17:53:16.493Z,13.40
2023-02-06T17:55:45.069Z,12.45
2023-02-06T17:58:11.663Z,11.88
2023-02-06T18:00:38.831Z,12.90
2023-02-06T18:03:05.664Z,14.10
2023-02-06T18:05:32.405Z,14.13
2023-02-06T18:07:58.992Z,14.70
2023-02-06T18:10:25.903Z,16.13
2023-02-06T18:12:52.557Z,17.65
2023-02-06T18:15:19.229Z,19.27
2023-02-06T18:17:45.852Z,19.10
2023-02-06T18:20:13.008Z,16.77
2023-02-06T18:22:42.624Z,18.20
2023-02-06T18:27:38.852Z,20.00
2023-02-06T18:30:06.306Z,19.85
2023-02-06T18:32:33.705Z,19.30
2023-02-06T18:35:00.591Z,20.90
2023-02-06T18:37:27.454Z,20.40
2023-02-06T18:39:57.790Z,18.73
2023-02-06T18:42:43.037Z,20.55
2023-02-06T18:45:09.752Z,20.48
2023-02-06T18:47:36.409Z,23.90
2023-02-06T18:50:02.998Z,24.27
2023-02-06T18:52:29.611Z,24.90
2023-02-06T18:54:56.268Z,27.95
2023-02-06T18:57:22.933Z,28.42
2023-02-06T18:59:49.534Z,27.80
2023-02-06T19:02:16.257Z,27.02
2023-02-06T19:04:42.909Z,26.08
2023-02-06T19:07:11.625Z,28.52
2023-02-06T19:09:38.677Z,25.70
2023-02-06T19:12:05.428Z,26.70
2023-02-06T19:14:32.067Z,28.65
2023-02-06T19:16:58.895Z,28.98
2023-02-06T19:19:25.590Z,32.83
2023-02-06T19:21:52.166Z,33.67
2023-02-06T19:24:18.944Z,32.20
2023-02-06T19:26:46.190Z,30.75
2023-02-06T19:29:19.373Z,31.52
2023-02-06T19:31:53.423Z,32.58
2023-02-06T19:34:20.170Z,35.10
2023-02-06T19:36:46.748Z,32.35
2023-02-06T19:39:14.233Z,32.88
2023-02-06T19:41:40.843Z,34.40
2023-02-06T19:44:10.470Z,33.65
2023-02-06T19:49:06.213Z,32.35
2023-02-06T19:51:38.874Z,32.97
2023-02-06T19:54:05.982Z,35.30
2023-02-06T19:56:39.239Z,31.63
2023-02-06T19:59:19.421Z,32.65
2023-02-06T20:01:51.509Z,35.58
2023-02-06T20:04:19.384Z,33.78
2023-02-06T20:06:46.754Z,32.92
2023-02-06T20:09:15.644Z,35.00
2023-02-06T20:11:42.877Z,32.78
2023-02-06T20:14:10.788Z,30.17
2023-02-06T20:16:39.523Z,31.05
2023-02-06T20:19:15.432Z,29.30
2023-02-06T20:21:44.307Z,26.10
2023-02-06T20:24:13.939Z,25.38
2023-02-06T20:29:11.248Z,28.15
2023-02-06T20:34:05.596Z,27.08
2023-02-06T20:36:32.273Z,25.70
2023-02-06T20:39:00.120Z,25.90
2023-02-06T20:41:31.088Z,24.30
2023-02-06T20:43:59.745Z,23.65
2023-02-06T20:46:29.634Z,22.25
2023-02-06T20:49:01.806Z,20.10
2023-02-06T20:51:29.690Z,19.33
2023-02-06T20:53:56.754Z,18.90
2023-02-06T20:56:23.991Z,20.52
2023-02-06T20:58:51.223Z,21.98
2023-02-06T21:01:19.618Z,25.73
2023-02-06T21:03:47.075Z,26.08
2023-02-06T21:06:14.883Z,27.75
2023-02-06T21:08:42.645Z,25.98
2023-02-06T21:11:09.450Z,25.15
2023-02-06T21:13:36.219Z,25.83
2023-02-06T21:16:02.873Z,22.90
2023-02-06T21:18:31.446Z,20.52
2023-02-06T21:21:07.134Z,21.88
2023-02-06T21:23:34.023Z,19.75
2023-02-06T21:26:00.820Z,20.20
2023-02-06T21:28:27.477Z,19.30
2023-02-06T21:31:02.692Z,21.63
2023-02-06T21:33:29.799Z,22.05
2023-02-06T21:35:56.967Z,22.20
2023-02-06T21:38:24.775Z,22.65
2023-02-06T21:40:51.430Z,20.50
2023-02-06T21:43:18.021Z,21.35
2023-02-06T21:45:47.531Z,23.00
2023-02-06T21:50:41.470Z,23.08
2023-02-06T21:53:09.253Z,26.15
2023-02-06T21:55:41.616Z,28.83
2023-02-06T21:58:08.264Z,29.45
2023-02-06T22:00:34.894Z,29.05
2023-02-06T22:03:01.724Z,26.45
2023-02-06T22:05:29.160Z,26.73
2023-02-06T22:07:56.811Z,26.98
2023-02-06T22:10:23.388Z,22.85
2023-02-06T22:12:49.973Z,22.85
2023-02-06T22:15:17.087Z,22.58
2023-02-06T22:17:43.667Z,22.90
2023-02-06T22:20:11.017Z,20.50
2023-02-06T22:22:38.646Z,20.15
2023-02-06T22:25:05.758Z,19.63
2023-02-06T22:27:33.099Z,18.02
2023-02-06T22:29:59.637Z,16.63
2023-02-06T22:32:26.294Z,18.10
2023-02-06T22:34:53.941Z,17.02
2023-02-06T22:37:20.792Z,17.50
2023-02-06T22:39:47.345Z,19.08
2023-02-06T22:42:13.992Z,17.20
2023-02-06T22:44:40.536Z,17.77
2023-02-06T22:47:07.246Z,16.65
2023-02-06T22:49:33.869Z,17.27
2023-02-06T22:52:00.369Z,16.75
2023-02-06T22:54:27.059Z,16.38
2023-02-06T22:56:53.652Z,16.52
2023-02-06T22:59:22.932Z,16.15
2023-02-06T23:01:55.110Z,16.48
2023-02-06T23:04:24.494Z,17.15
2023-02-06T23:06:52.070Z,17.05
2023-02-06T23:09:33.832Z,16.65
2023-02-06T23:12:01.333Z,16.50
2023-02-06T23:14:30.027Z,18.13
2023-02-06T23:16:57.833Z,17.83
2023-02-06T23:19:24.690Z,16.70
2023-02-06T23:21:51.483Z,18.02
2023-02-06T23:24:19.023Z,18.00
2023-02-06T23:26:48.887Z,17.83
2023-02-06T23:29:17.901Z,20.23
2023-02-06T23:31:46.316Z,18.83
2023-02-06T23:34:14.102Z,19.08
2023-02-06T23:36:41.751Z,17.17
2023-02-06T23:39:08.314Z,17.77
2023-02-06T23:41:35.170Z,17.70
2023-02-06T23:44:05.439Z,17.20
2023-02-06T23:46:36.160Z,16.60
2023-02-06T23:49:03.384Z,17.05
2023-02-06T23:51:30.024Z,17.40
2023-02-06T23:53:56.585Z,16.23
2023-02-06T23:56:26.563Z,18.95
2023-02-06T23:58:55.478Z,17.73
